createdAt,value
2022-10-17T00:00:57.968Z,101426.84
2022-10-17T00:03:25.013Z,101436.53
2022-10-17T00:05:52.168Z,101431.25
2022-10-17T00:08:20.186Z,101432.16
2022-10-17T00:11:01.226Z,101433.09
2022-10-17T00:13:28.800Z,101433.97
2022-10-17T00:15:55.869Z,101433.09
2022-10-17T00:18:23.171Z,101429.53
2022-10-17T00:20:50.916Z,101429.53
2022-10-17T00:23:18.906Z,101418.06
2022-10-17T00:25:45.959Z,101422.47
2022-10-17T00:28:15.052Z,101411.91
2022-10-17T00:30:42.133Z,101417.22
2022-10-17T00:33:09.115Z,101409.28
2022-10-17T00:35:36.132Z,101414.56
2022-10-17T00:38:03.167Z,101418.09
2022-10-17T00:40:30.124Z,101406.63
2022-10-17T00:42:57.184Z,101411.03
2022-10-17T00:45:31.360Z,101408.38
2022-10-17T00:48:09.494Z,101413.69
2022-10-17T00:50:40.054Z,101414.59
2022-10-17T00:53:09.522Z,101417.22
2022-10-17T00:55:47.545Z,101414.56
2022-10-17T00:58:14.784Z,101421.63
2022-10-17T01:00:48.826Z,101410.13
2022-10-17T01:03:16.916Z,101416.28
2022-10-17T01:05:44.263Z,101412.75
2022-10-17T01:08:12.611Z,101407.47
2022-10-17T01:11:04.570Z,101410.09
2022-10-17T01:14:03.333Z,101413.59
2022-10-17T01:16:54.664Z,101403.91
2022-10-17T01:19:41.571Z,101408.31
2022-10-17T01:22:12.193Z,101412.72
2022-10-17T01:24:57.112Z,101414.44
2022-10-17T01:27:49.801Z,101420.63
2022-10-17T01:30:54.993Z,101410.00
2022-10-17T01:34:12.927Z,101409.94
2022-10-17T01:36:48.715Z,101412.63
2022-10-17T01:39:48.327Z,101412.59
2022-10-17T01:42:45.831Z,101409.06
2022-10-17T01:45:48.531Z,101406.44
2022-10-17T01:48:22.491Z,101396.69
2022-10-17T01:50:59.674Z,101402.00
2022-10-17T01:53:35.855Z,101400.25
2022-10-17T01:56:06.989Z,101399.34
2022-10-17T01:58:43.511Z,101401.09
2022-10-17T02:01:12.979Z,101395.81
2022-10-17T02:03:43.709Z,101395.84
2022-10-17T02:06:10.874Z,101393.19
2022-10-17T02:08:50.412Z,101387.88
2022-10-17T02:11:26.832Z,101379.06
2022-10-17T02:14:26.454Z,101381.72
2022-10-17T02:17:35.501Z,101372.00
2022-10-17T02:20:24.979Z,101374.69
2022-10-17T02:22:59.558Z,101383.53
2022-10-17T02:25:55.579Z,101383.53
2022-10-17T02:29:00.598Z,101381.75
2022-10-17T02:31:40.101Z,101374.75
2022-10-17T02:34:22.775Z,101374.72
2022-10-17T02:36:59.877Z,101371.22
2022-10-17T02:39:29.313Z,101381.81
2022-10-17T02:42:00.557Z,101380.03
2022-10-17T02:44:29.670Z,101380.03
2022-10-17T02:47:27.436Z,101384.44
2022-10-17T02:49:58.539Z,101380.00
2022-10-17T02:52:45.520Z,101376.44
2022-10-17T02:55:39.958Z,101384.41
2022-10-17T02:58:21.223Z,101377.31
2022-10-17T03:00:49.056Z,101377.31
2022-10-17T03:03:29.340Z,101379.94
2022-10-17T03:05:56.732Z,101380.81
2022-10-17T03:08:24.444Z,101379.06
2022-10-17T03:10:51.933Z,101379.94
2022-10-17T03:13:19.176Z,101379.03
2022-10-17T03:15:46.955Z,101379.03
2022-10-17T03:18:14.246Z,101382.53
2022-10-17T03:20:41.353Z,101385.19
2022-10-17T03:23:08.419Z,101382.53
2022-10-17T03:25:35.463Z,101391.34
2022-10-17T03:28:02.427Z,101396.63
2022-10-17T03:30:29.790Z,101393.13
2022-10-17T03:32:59.199Z,101391.34
2022-10-17T03:35:27.717Z,101393.97
2022-10-17T03:37:56.256Z,101392.22
2022-10-17T03:40:23.406Z,101392.22
2022-10-17T03:42:51.016Z,101387.81
2022-10-17T03:45:18.020Z,101381.63
2022-10-17T03:47:45.023Z,101382.50
2022-10-17T03:50:12.446Z,101385.19
2022-10-17T03:52:39.555Z,101391.34
2022-10-17T03:55:06.967Z,101390.44
2022-10-17T03:57:36.624Z,101392.16
2022-10-17T04:00:05.420Z,101392.16
2022-10-17T04:02:32.521Z,101403.63
2022-10-17T04:04:59.689Z,101401.81
2022-10-17T04:09:53.734Z,101407.06
2022-10-17T04:12:20.783Z,101405.25
2022-10-17T04:14:47.795Z,101407.00
2022-10-17T04:17:14.805Z,101399.91
2022-10-17T04:19:41.911Z,101394.56
2022-10-17T04:22:08.864Z,101412.19
2022-10-17T04:24:35.838Z,101413.03
2022-10-17T04:27:03.122Z,101411.25
2022-10-17T04:29:30.160Z,101419.16
2022-10-17T04:32:00.308Z,101420.94
2022-10-17T04:34:27.334Z,101414.75
2022-10-17T04:36:54.605Z,101412.97
2022-10-17T04:39:21.753Z,101414.72
2022-10-17T04:41:48.775Z,101416.47
2022-10-17T04:44:15.786Z,101423.53
2022-10-17T04:46:42.928Z,101427.06
2022-10-17T04:49:10.004Z,101435.03
2022-10-17T04:51:39.112Z,101434.13
2022-10-17T04:54:06.553Z,101449.16
2022-10-17T04:56:33.767Z,101445.59
2022-10-17T04:59:00.795Z,101457.94
2022-10-17T05:01:28.446Z,101447.34
2022-10-17T05:03:56.126Z,101457.06
2022-10-17T05:06:28.192Z,101458.00
2022-10-17T05:08:55.580Z,101461.53
2022-10-17T05:11:25.760Z,101449.13
2022-10-17T05:13:56.635Z,101455.31
2022-10-17T05:16:24.910Z,101461.50
2022-10-17T05:18:55.122Z,101460.63
2022-10-17T05:21:24.610Z,101457.97
2022-10-17T05:23:52.196Z,101454.47
2022-10-17T05:26:20.030Z,101456.22
2022-10-17T05:28:47.445Z,101464.16
2022-10-17T05:31:14.971Z,101458.84
2022-10-17T05:33:42.322Z,101469.44
2022-10-17T05:36:10.063Z,101473.81
2022-10-17T05:38:37.310Z,101472.94
2022-10-17T05:41:06.268Z,101487.06
2022-10-17T05:43:34.685Z,101483.50
2022-10-17T05:46:07.121Z,101483.47
2022-10-17T05:48:34.828Z,101482.56
2022-10-17T05:51:08.862Z,101490.56
2022-10-17T05:53:39.972Z,101492.31
2022-10-17T05:56:10.735Z,101492.31
2022-10-17T05:58:50.340Z,101492.31
2022-10-17T06:01:18.985Z,101494.97
2022-10-17T06:03:46.006Z,101496.72
2022-10-17T06:06:14.925Z,101498.47
2022-10-17T06:08:42.780Z,101495.78
2022-10-17T06:11:10.873Z,101493.09
2022-10-17T06:13:39.296Z,101488.63
2022-10-17T06:16:07.048Z,101501.00
2022-10-17T06:18:34.435Z,101499.16
2022-10-17T06:21:08.673Z,101500.00
2022-10-17T06:23:35.996Z,101492.84
2022-10-17T06:26:05.399Z,101499.88
2022-10-17T06:28:33.793Z,101496.31
2022-10-17T06:31:07.626Z,101495.41
2022-10-17T06:33:35.443Z,101500.63
2022-10-17T06:36:03.658Z,101500.56
2022-10-17T06:38:30.761Z,101509.34
2022-10-17T06:41:14.379Z,101508.41
2022-10-17T06:43:45.721Z,101510.97
2022-10-17T06:46:15.192Z,101507.31
2022-10-17T06:48:42.591Z,101507.19
2022-10-17T06:51:11.423Z,101515.94
2022-10-17T06:53:40.292Z,101525.59
2022-10-17T06:56:09.578Z,101521.94
2022-10-17T06:58:39.699Z,101515.59
2022-10-17T07:01:13.397Z,101511.09
2022-10-17T07:03:41.371Z,101514.56
2022-10-17T07:06:10.850Z,101518.09
2022-10-17T07:08:38.143Z,101526.09
2022-10-17T07:11:18.612Z,101534.91
2022-10-17T07:13:49.206Z,101541.03
2022-10-17T07:16:16.930Z,101540.91
2022-10-17T07:18:44.429Z,101539.84
2022-10-17T07:21:11.550Z,101543.25
2022-10-17T07:23:39.900Z,101553.81
2022-10-17T07:26:11.093Z,101563.59
2022-10-17T07:28:42.375Z,101560.00
2022-10-17T07:31:13.266Z,101562.72
2022-10-17T07:33:41.071Z,101568.94
2022-10-17T07:36:08.684Z,101576.09
2022-10-17T07:38:37.010Z,101588.44
2022-10-17T07:41:06.584Z,101595.53
2022-10-17T07:43:34.775Z,101605.16
2022-10-17T07:46:03.352Z,101627.38
2022-10-17T07:48:30.798Z,101638.88
2022-10-17T07:50:58.055Z,101640.63
2022-10-17T07:53:25.130Z,101646.72
2022-10-17T07:55:52.192Z,101651.91
2022-10-17T07:58:19.238Z,101659.66
2022-10-17T08:00:48.610Z,101656.88
2022-10-17T08:03:15.812Z,101663.91
2022-10-17T08:05:42.856Z,101670.09
2022-10-17T08:08:09.838Z,101675.22
2022-10-17T08:10:37.428Z,101673.03
2022-10-17T08:13:04.503Z,101683.38
2022-10-17T08:15:32.146Z,101683.31
2022-10-17T08:17:59.630Z,101688.72
2022-10-17T08:20:26.875Z,101699.41
2022-10-17T08:22:55.423Z,101705.69
2022-10-17T08:25:23.496Z,101706.59
2022-10-17T08:27:51.880Z,101722.63
2022-10-17T08:30:20.329Z,101723.59
2022-10-17T08:32:47.340Z,101730.75
2022-10-17T08:35:14.880Z,101731.56
2022-10-17T08:37:42.025Z,101727.09
2022-10-17T08:40:21.033Z,101737.72
2022-10-17T08:43:12.511Z,101735.91
2022-10-17T08:46:03.196Z,101736.81
2022-10-17T08:48:42.623Z,101738.59
2022-10-17T08:51:28.319Z,101732.38
2022-10-17T08:54:10.093Z,101727.94
2022-10-17T08:56:49.168Z,101724.28
2022-10-17T08:59:29.595Z,101724.91
2022-10-17T09:02:54.508Z,101729.19
2022-10-17T09:05:35.111Z,101733.66
2022-10-17T09:08:12.947Z,101748.91
2022-10-17T09:11:20.109Z,101747.28
2022-10-17T09:14:02.043Z,101763.50
2022-10-17T09:16:37.684Z,101781.44
2022-10-17T09:19:11.738Z,101850.91
2022-10-17T09:21:54.160Z,101822.63
2022-10-17T09:24:31.540Z,101766.00
2022-10-17T09:26:59.366Z,101730.59
2022-10-17T09:29:32.370Z,101744.78
2022-10-17T09:32:17.487Z,101706.63
2022-10-17T09:34:44.630Z,101705.69
2022-10-17T09:37:15.440Z,101716.38
2022-10-17T09:39:45.836Z,101719.06
2022-10-17T09:42:21.461Z,101736.75
2022-10-17T09:45:25.942Z,101747.25
2022-10-17T09:48:04.615Z,101762.19
2022-10-17T09:50:34.971Z,101767.44
2022-10-17T09:53:31.122Z,101779.00
2022-10-17T09:56:02.147Z,101756.00
2022-10-17T09:59:01.906Z,101742.63
2022-10-17T10:01:31.818Z,101733.72
2022-10-17T10:04:15.747Z,101745.03
2022-10-17T10:07:06.499Z,101753.75
2022-10-17T10:09:39.360Z,101755.53
2022-10-17T10:12:22.657Z,101751.06
2022-10-17T10:14:53.338Z,101747.66
2022-10-17T10:17:33.606Z,101753.91
2022-10-17T10:20:01.681Z,101764.53
2022-10-17T10:22:29.133Z,101777.81
2022-10-17T10:25:15.172Z,101783.09
2022-10-17T10:27:45.235Z,101790.25
2022-10-17T10:30:29.961Z,101788.38
2022-10-17T10:32:59.980Z,101784.63
2022-10-17T10:35:33.389Z,101782.50
2022-10-17T10:38:04.040Z,101798.09
2022-10-17T10:40:47.135Z,101806.59
2022-10-17T10:43:43.212Z,101818.13
2022-10-17T10:46:27.310Z,101842.25
2022-10-17T10:49:00.870Z,101856.63
2022-10-17T10:51:40.210Z,101857.59
2022-10-17T10:54:51.044Z,101844.22
2022-10-17T10:57:23.049Z,101838.75
2022-10-17T11:00:13.003Z,101824.28
2022-10-17T11:03:17.751Z,101833.00
2022-10-17T11:05:53.470Z,101842.59
2022-10-17T11:08:50.262Z,101846.16
2022-10-17T11:11:39.885Z,101855.00
2022-10-17T11:14:38.205Z,101857.63
2022-10-17T11:17:29.714Z,101854.22
2022-10-17T11:20:19.959Z,101866.78
2022-10-17T11:22:57.850Z,101871.28
2022-10-17T11:25:40.743Z,101878.47
2022-10-17T11:28:18.471Z,101881.19
2022-10-17T11:31:10.121Z,101884.72
2022-10-17T11:33:56.037Z,101892.72
2022-10-17T11:36:30.109Z,101896.31
2022-10-17T11:39:11.478Z,101903.50
2022-10-17T11:41:55.491Z,101894.63
2022-10-17T11:44:37.215Z,101898.19
2022-10-17T11:47:26.436Z,101900.16
2022-10-17T11:53:32.057Z,101905.41
2022-10-17T11:56:00.603Z,101905.50
2022-10-17T11:58:53.215Z,101904.69
2022-10-17T12:01:46.969Z,101913.56
2022-10-17T12:04:59.430Z,101918.00
2022-10-17T12:08:26.990Z,101926.19
2022-10-17T12:11:14.202Z,101924.38
2022-10-17T12:13:41.974Z,101925.19
2022-10-17T12:16:20.992Z,101925.97
2022-10-17T12:19:11.877Z,101932.13
2022-10-17T12:22:00.768Z,101934.75
2022-10-17T12:24:52.959Z,101932.84
2022-10-17T12:27:30.656Z,101934.44
2022-10-17T12:30:12.505Z,101940.38
2022-10-17T12:33:06.238Z,101935.59
2022-10-17T12:35:36.814Z,101942.59
2022-10-17T12:38:22.954Z,101942.53
2022-10-17T12:40:53.120Z,101939.91
2022-10-17T12:43:29.197Z,101955.03
2022-10-17T12:46:02.166Z,101954.16
2022-10-17T12:48:37.903Z,101957.66
2022-10-17T12:54:15.505Z,101967.38
2022-10-17T12:56:47.943Z,101961.31
2022-10-17T12:59:26.181Z,101964.56
2022-10-17T13:01:59.065Z,101964.97
2022-10-17T13:04:28.913Z,101962.03
2022-10-17T13:07:00.658Z,101954.91
2022-10-17T13:09:37.574Z,101956.75
2022-10-17T13:12:12.369Z,101946.13
2022-10-17T13:14:42.876Z,101954.19
2022-10-17T13:17:30.751Z,101966.84
2022-10-17T13:19:58.611Z,101974.13
2022-10-17T13:22:32.909Z,101976.94
2022-10-17T13:25:19.187Z,101978.72
2022-10-17T13:27:46.796Z,101983.19
2022-10-17T13:30:32.627Z,102001.88
2022-10-17T13:33:01.519Z,101993.97
2022-10-17T13:35:58.732Z,102006.47
2022-10-17T13:38:29.886Z,102002.91
2022-10-17T13:41:05.914Z,102015.13
2022-10-17T13:43:38.875Z,102005.09
2022-10-17T13:46:32.640Z,102012.16
2022-10-17T13:48:54.104Z,102011.25
2022-10-17T13:51:21.832Z,102011.28
2022-10-17T13:53:49.456Z,102017.69
2022-10-17T13:56:29.319Z,102026.69
2022-10-17T13:59:18.330Z,102032.03
2022-10-17T14:01:45.808Z,102036.50
2022-10-17T14:04:19.862Z,102045.34
2022-10-17T14:06:51.288Z,102047.88
2022-10-17T14:09:29.225Z,102052.34
2022-10-17T14:12:11.131Z,102049.69
2022-10-17T14:14:58.388Z,102054.19
2022-10-17T14:17:30.063Z,102057.00
2022-10-17T14:23:17.566Z,102067.84
2022-10-17T14:25:41.131Z,102078.47
2022-10-17T14:28:11.741Z,102079.34
2022-10-17T14:30:56.204Z,102078.53
2022-10-17T14:33:32.452Z,102079.38
2022-10-17T14:36:02.556Z,102074.00
2022-10-17T14:38:30.330Z,102071.34
2022-10-17T14:41:30.562Z,102072.25
2022-10-17T14:44:02.435Z,102068.66
2022-10-17T14:46:29.605Z,102064.25
2022-10-17T14:49:21.735Z,102073.13
2022-10-17T14:52:29.209Z,102071.34
2022-10-17T14:54:58.009Z,102059.84
2022-10-17T14:57:28.272Z,102062.56
2022-10-17T14:59:57.235Z,102071.47
2022-10-17T15:02:30.742Z,102063.50
2022-10-17T15:04:58.156Z,102063.53
2022-10-17T15:07:25.198Z,102068.94
2022-10-17T15:09:53.966Z,102072.53
2022-10-17T15:12:25.346Z,102081.44
2022-10-17T15:14:53.343Z,102084.91
2022-10-17T15:17:31.310Z,102095.53
2022-10-17T15:19:59.057Z,102104.41
2022-10-17T15:22:26.501Z,102106.22
2022-10-17T15:24:53.607Z,102109.75
2022-10-17T15:27:24.017Z,102121.38
2022-10-17T15:29:52.836Z,102123.25
2022-10-17T15:32:19.867Z,102125.03
2022-10-17T15:34:46.869Z,102133.94
2022-10-17T15:37:20.938Z,102138.44
2022-10-17T15:39:54.704Z,102134.06
2022-10-17T15:42:27.608Z,102136.88
2022-10-17T15:44:55.345Z,102140.53
2022-10-17T15:47:31.304Z,102132.59
2022-10-17T15:50:00.464Z,102146.00
2022-10-17T15:52:27.789Z,102145.19
2022-10-17T15:54:57.341Z,102145.25
2022-10-17T15:57:30.743Z,102145.28
2022-10-17T16:00:00.274Z,102148.94
2022-10-17T16:02:28.019Z,102149.91
2022-10-17T16:04:55.161Z,102155.34
2022-10-17T16:07:22.410Z,102148.34
2022-10-17T16:09:49.488Z,102159.09
2022-10-17T16:12:27.952Z,102160.06
2022-10-17T16:14:55.570Z,102161.03
2022-10-17T16:17:22.581Z,102154.88
2022-10-17T16:19:50.074Z,102159.38
2022-10-17T16:22:33.276Z,102161.22
2022-10-17T16:25:07.853Z,102162.16
2022-10-17T16:27:36.738Z,102163.13
2022-10-17T16:30:08.671Z,102161.38
2022-10-17T16:32:35.735Z,102169.41
2022-10-17T16:35:02.904Z,102168.53
2022-10-17T16:37:29.999Z,102167.69
2022-10-17T16:39:56.966Z,102172.16
2022-10-17T16:42:24.262Z,102169.56
2022-10-17T16:44:51.418Z,102170.44
2022-10-17T16:47:19.173Z,102175.81
2022-10-17T16:49:46.401Z,102171.41
2022-10-17T16:52:13.773Z,102168.75
2022-10-17T16:54:41.008Z,102164.34
2022-10-17T16:57:08.130Z,102166.16
2022-10-17T16:59:35.181Z,102169.69
2022-10-17T17:02:02.202Z,102180.34
2022-10-17T17:04:29.325Z,102178.59
2022-10-17T17:06:56.435Z,102180.41
2022-10-17T17:09:23.653Z,102180.44
2022-10-17T17:11:50.621Z,102182.22
2022-10-17T17:14:17.569Z,102197.31
2022-10-17T17:16:44.528Z,102198.22
2022-10-17T17:19:15.165Z,102203.56
2022-10-17T17:21:47.662Z,102204.47
2022-10-17T17:24:15.112Z,102205.38
2022-10-17T17:26:42.154Z,102217.81
2022-10-17T17:29:10.935Z,102216.94
2022-10-17T17:31:39.415Z,102217.84
2022-10-17T17:34:06.453Z,102217.84
2022-10-17T17:36:37.063Z,102220.53
2022-10-17T17:39:07.872Z,102218.75
2022-10-17T17:41:35.498Z,102223.19
2022-10-17T17:44:04.087Z,102231.19
2022-10-17T17:46:31.239Z,102225.88
2022-10-17T17:48:58.533Z,102234.78
2022-10-17T17:51:29.469Z,102240.09
2022-10-17T17:53:57.083Z,102240.09
2022-10-17T17:56:27.630Z,102241.84
2022-10-17T17:59:00.803Z,102250.75
2022-10-17T18:01:38.086Z,102250.75
2022-10-17T18:04:08.721Z,102252.53
2022-10-17T18:06:37.637Z,102255.22
2022-10-17T18:09:06.552Z,102256.09
2022-10-17T18:11:33.885Z,102263.19
2022-10-17T18:14:05.399Z,102262.28
2022-10-17T18:16:35.070Z,102259.63
2022-10-17T18:19:08.891Z,102257.88
2022-10-17T18:21:37.050Z,102258.78
2022-10-17T18:24:04.912Z,102268.50
2022-10-17T18:26:32.308Z,102278.28
2022-10-17T18:28:59.434Z,102281.81
2022-10-17T18:31:35.686Z,102278.28
2022-10-17T18:34:05.026Z,102287.16
2022-10-17T18:36:34.468Z,102283.59
2022-10-17T18:39:02.697Z,102278.31
2022-10-17T18:41:30.071Z,102275.63
2022-10-17T18:43:57.752Z,102275.63
2022-10-17T18:46:36.599Z,102284.50
2022-10-17T18:49:03.794Z,102285.41
2022-10-17T18:51:30.868Z,102280.94
2022-10-17T18:53:58.821Z,102273.88
2022-10-17T18:56:26.682Z,102288.06
2022-10-17T18:58:57.038Z,102293.38
2022-10-17T19:01:27.254Z,102295.16
2022-10-17T19:03:57.484Z,102302.22
2022-10-17T19:06:33.681Z,102296.03
2022-10-17T19:09:05.023Z,102291.59
2022-10-17T19:11:34.024Z,102282.75
2022-10-17T19:14:03.889Z,102288.06
2022-10-17T19:16:45.596Z,102283.66
2022-10-17T19:19:25.766Z,102288.97
2022-10-17T19:21:53.311Z,102288.09
2022-10-17T19:24:27.521Z,102288.09
2022-10-17T19:26:59.494Z,102290.75
2022-10-17T19:29:28.727Z,102288.97
2022-10-17T19:34:22.761Z,102297.84
2022-10-17T19:36:50.205Z,102296.06
2022-10-17T19:39:23.289Z,102295.19
2022-10-17T19:41:50.465Z,102305.84
2022-10-17T19:44:17.798Z,102305.84
2022-10-17T19:46:46.941Z,102299.63
2022-10-17T19:49:14.558Z,102305.81
2022-10-17T19:51:42.219Z,102309.38
2022-10-17T19:54:10.789Z,102311.16
2022-10-17T19:56:38.278Z,102320.03
2022-10-17T19:59:06.793Z,102318.25
2022-10-17T20:01:38.905Z,102322.72
2022-10-17T20:04:07.723Z,102318.25
2022-10-17T20:06:35.353Z,102313.84
2022-10-17T20:09:03.304Z,102317.41
2022-10-17T20:11:30.597Z,102320.94
2022-10-17T20:13:59.452Z,102317.41
2022-10-17T20:16:33.769Z,102315.63
2022-10-17T20:19:09.472Z,102311.22
2022-10-17T20:21:39.422Z,102321.81
2022-10-17T20:24:11.389Z,102320.09
2022-10-17T20:26:39.364Z,102323.59
2022-10-17T20:29:18.394Z,102324.50
2022-10-17T20:31:46.780Z,102326.28
2022-10-17T20:34:16.819Z,102317.44
2022-10-17T20:36:44.592Z,102320.09
2022-10-17T20:39:14.020Z,102319.19
2022-10-17T20:41:41.591Z,102322.75
2022-10-17T20:44:09.056Z,102321.88
2022-10-17T20:46:41.582Z,102322.75
2022-10-17T20:49:17.971Z,102328.97
2022-10-17T20:51:45.944Z,102331.59
2022-10-17T20:54:13.131Z,102328.97
2022-10-17T20:56:40.319Z,102333.38
2022-10-17T20:59:17.919Z,102324.53
2022-10-17T21:01:45.743Z,102330.72
2022-10-17T21:04:44.121Z,102339.56
2022-10-17T21:07:00.354Z,102343.13
2022-10-17T21:09:27.627Z,102339.59
2022-10-17T21:11:55.943Z,102337.81
2022-10-17T21:14:24.984Z,102334.25
2022-10-17T21:16:52.479Z,102335.16
2022-10-17T21:19:21.722Z,102331.63
2022-10-17T21:21:49.079Z,102326.28
2022-10-17T21:24:19.270Z,102340.44
2022-10-17T21:26:50.336Z,102347.53
2022-10-17T21:29:17.288Z,102348.44
2022-10-17T21:31:45.095Z,102349.31
2022-10-17T21:34:27.898Z,102344.88
2022-10-17T21:36:55.145Z,102351.97
2022-10-17T21:39:24.821Z,102359.03
2022-10-17T21:41:52.920Z,102350.19
2022-10-17T21:44:26.703Z,102366.13
2022-10-17T21:46:55.174Z,102363.47
2022-10-17T21:49:24.881Z,102368.78
2022-10-17T21:51:52.681Z,102374.09
2022-10-17T21:54:22.954Z,102377.63
2022-10-17T21:56:51.081Z,102376.72
2022-10-17T21:59:18.468Z,102376.75
2022-10-17T22:01:46.385Z,102385.56
2022-10-17T22:04:17.752Z,102382.03
2022-10-17T22:06:47.503Z,102384.66
2022-10-17T22:09:23.416Z,102384.66
2022-10-17T22:11:54.721Z,102396.19
2022-10-17T22:14:26.052Z,102391.72
2022-10-17T22:16:53.860Z,102389.97
2022-10-17T22:19:26.707Z,102391.75
2022-10-17T22:21:54.717Z,102404.13
2022-10-17T22:24:22.394Z,102394.38
2022-10-17T22:26:49.687Z,102397.91
2022-10-17T22:29:17.632Z,102395.25
2022-10-17T22:31:44.908Z,102395.25
2022-10-17T22:34:15.683Z,102392.59
2022-10-17T22:36:43.315Z,102393.50
2022-10-17T22:39:11.292Z,102393.47
2022-10-17T22:41:38.462Z,102396.13
2022-10-17T22:44:05.946Z,102401.44
2022-10-17T22:46:33.234Z,102403.19
2022-10-17T22:49:00.247Z,102401.41
2022-10-17T22:51:27.476Z,102404.06
2022-10-17T22:53:54.591Z,102401.41
2022-10-17T22:56:23.582Z,102406.72
2022-10-17T22:58:51.397Z,102405.81
2022-10-17T23:01:22.666Z,102403.16
2022-10-17T23:03:51.074Z,102407.59
2022-10-17T23:06:19.012Z,102408.47
2022-10-17T23:08:46.181Z,102411.13
2022-10-17T23:11:13.345Z,102397.88
2022-10-17T23:13:41.032Z,102397.88
2022-10-17T23:16:08.864Z,102405.84
2022-10-17T23:18:37.736Z,102410.28
2022-10-17T23:21:05.374Z,102412.06
2022-10-17T23:23:32.365Z,102405.84
2022-10-17T23:26:09.424Z,102404.97
2022-10-17T23:28:36.781Z,102398.78
2022-10-17T23:31:17.090Z,102399.69
2022-10-17T23:33:45.961Z,102391.69
2022-10-17T23:36:16.221Z,102397.91
2022-10-17T23:38:45.530Z,102391.72
2022-10-17T23:41:13.456Z,102398.78
2022-10-17T23:43:41.008Z,102398.78
2022-10-17T23:46:08.612Z,102397.91
2022-10-17T23:48:35.907Z,102405.00
2022-10-17T23:51:03.576Z,102398.78
2022-10-17T23:53:31.061Z,102403.22
2022-10-17T23:55:57.987Z,102402.34
2022-10-17T23:58:24.970Z,102398.78
